createdAt,value
2023-04-23T00:00:08.371Z,28.03
2023-04-23T00:02:36.478Z,28.07
2023-04-23T00:05:06.257Z,27.87
2023-04-23T00:07:34.668Z,31.47
2023-04-23T00:10:05.931Z,29.77
2023-04-23T00:12:33.062Z,29.70
2023-04-23T00:15:01.344Z,30.90
2023-04-23T00:17:28.524Z,30.87
2023-04-23T00:19:55.615Z,32.30
2023-04-23T00:22:22.494Z,34.57
2023-04-23T00:24:49.466Z,31.30
2023-04-23T00:27:18.068Z,32.37
2023-04-23T00:29:46.441Z,30.77
2023-04-23T00:32:14.796Z,32.53
2023-04-23T00:34:42.062Z,32.53
2023-04-23T00:37:09.298Z,30.50
2023-04-23T00:39:38.594Z,32.80
2023-04-23T00:42:12.659Z,32.17
2023-04-23T00:44:41.760Z,32.27
2023-04-23T00:47:09.497Z,32.23
2023-04-23T00:49:37.492Z,31.63
2023-04-23T00:52:04.303Z,36.07
2023-04-23T00:54:31.206Z,34.77
2023-04-23T00:56:58.811Z,36.33
2023-04-23T00:59:32.230Z,35.80
2023-04-23T01:01:59.526Z,37.10
2023-04-23T01:04:29.485Z,37.73
2023-04-23T01:06:57.714Z,37.80
2023-04-23T01:09:27.977Z,40.10
2023-04-23T01:11:55.411Z,36.97
2023-04-23T01:14:22.251Z,36.77
2023-04-23T01:16:49.999Z,40.30
2023-04-23T01:19:17.258Z,41.40
2023-04-23T01:21:44.654Z,39.80
2023-04-23T01:24:12.547Z,37.70
2023-04-23T01:26:39.814Z,39.53
2023-04-23T01:29:07.692Z,40.07
2023-04-23T01:31:34.845Z,39.20
2023-04-23T01:34:02.120Z,40.63
2023-04-23T01:36:29.719Z,41.20
2023-04-23T01:38:56.959Z,42.07
2023-04-23T01:41:24.015Z,42.10
2023-04-23T01:43:50.928Z,43.57
2023-04-23T01:46:18.020Z,39.60
2023-04-23T01:48:46.625Z,40.63
2023-04-23T01:51:13.769Z,42.00
2023-04-23T01:53:40.922Z,40.43
2023-04-23T01:56:10.020Z,41.50
2023-04-23T01:58:37.025Z,41.13
2023-04-23T02:01:03.880Z,40.23
2023-04-23T02:03:33.860Z,41.23
2023-04-23T02:06:01.494Z,37.27
2023-04-23T02:08:28.806Z,39.47
2023-04-23T02:10:55.637Z,37.80
2023-04-23T02:13:22.704Z,40.93
2023-04-23T02:15:49.532Z,41.07
2023-04-23T02:18:16.824Z,38.90
2023-04-23T02:20:43.877Z,41.27
2023-04-23T02:23:12.519Z,38.93
2023-04-23T02:25:39.880Z,37.73
2023-04-23T02:28:08.446Z,39.30
2023-04-23T02:30:36.389Z,36.73
2023-04-23T02:33:03.865Z,35.87
2023-04-23T02:35:31.643Z,39.70
2023-04-23T02:37:58.600Z,38.03
2023-04-23T02:40:25.645Z,39.00
2023-04-23T02:42:52.563Z,39.73
2023-04-23T02:45:19.429Z,38.53
2023-04-23T02:47:46.492Z,39.07
2023-04-23T02:50:13.390Z,38.13
2023-04-23T02:52:40.222Z,38.17
2023-04-23T02:55:08.168Z,38.00
2023-04-23T02:57:35.285Z,39.60
2023-04-23T03:00:02.725Z,38.63
2023-04-23T03:02:29.795Z,38.60
2023-04-23T03:04:56.984Z,42.27
2023-04-23T03:07:24.007Z,44.43
2023-04-23T03:09:50.982Z,42.50
2023-04-23T03:12:18.321Z,42.07
2023-04-23T03:14:45.561Z,43.90
2023-04-23T03:17:12.597Z,46.43
2023-04-23T03:19:39.580Z,43.63
2023-04-23T03:22:06.815Z,46.47
2023-04-23T03:24:34.736Z,44.77
2023-04-23T03:27:01.495Z,45.27
2023-04-23T03:29:28.424Z,47.20
2023-04-23T03:31:55.519Z,45.23
2023-04-23T03:34:22.339Z,47.60
2023-04-23T03:36:49.785Z,48.13
2023-04-23T03:39:17.023Z,48.93
2023-04-23T03:41:43.828Z,47.90
2023-04-23T03:44:10.672Z,46.53
2023-04-23T03:46:37.793Z,48.13
2023-04-23T03:49:04.745Z,48.90
2023-04-23T03:51:31.911Z,51.07
2023-04-23T03:53:58.848Z,52.90
2023-04-23T03:56:27.133Z,52.33
2023-04-23T03:58:54.058Z,52.43
2023-04-23T04:01:21.075Z,49.40
2023-04-23T04:03:48.002Z,50.20
2023-04-23T04:06:14.916Z,48.27
2023-04-23T04:08:42.128Z,49.47
2023-04-23T04:11:09.085Z,49.23
2023-04-23T04:13:36.237Z,52.07
2023-04-23T04:16:03.322Z,51.20
2023-04-23T04:18:30.135Z,49.20
2023-04-23T04:20:57.434Z,51.03
2023-04-23T04:23:24.294Z,48.67
2023-04-23T04:25:51.639Z,52.73
2023-04-23T04:28:18.967Z,51.50
2023-04-23T04:30:47.241Z,52.07
2023-04-23T04:33:15.104Z,53.67
2023-04-23T04:35:42.990Z,52.67
2023-04-23T04:38:09.751Z,52.67
2023-04-23T04:40:36.517Z,62.23
2023-04-23T04:43:05.523Z,58.00
2023-04-23T04:45:32.455Z,58.43
2023-04-23T04:47:59.625Z,59.67
2023-04-23T04:50:26.842Z,56.73
2023-04-23T04:52:53.691Z,52.80
2023-04-23T04:55:20.573Z,56.27
2023-04-23T04:57:47.503Z,58.77
2023-04-23T05:00:29.366Z,58.47
2023-04-23T05:02:58.003Z,60.97
2023-04-23T05:05:25.974Z,59.40
2023-04-23T05:07:54.413Z,54.03
2023-04-23T05:10:21.980Z,57.07
2023-04-23T05:12:48.911Z,56.37
2023-04-23T05:15:16.847Z,62.43
2023-04-23T05:17:44.296Z,57.73
2023-04-23T05:20:11.762Z,61.20
2023-04-23T05:22:39.839Z,64.17
2023-04-23T05:25:07.673Z,62.90
2023-04-23T05:27:35.184Z,62.13
2023-04-23T05:30:07.172Z,62.43
2023-04-23T05:32:34.450Z,58.20
2023-04-23T05:35:02.787Z,63.60
2023-04-23T05:37:30.164Z,60.87
2023-04-23T05:39:58.419Z,59.27
2023-04-23T05:42:25.446Z,58.50
2023-04-23T05:44:52.457Z,57.30
2023-04-23T05:47:19.530Z,56.40
2023-04-23T05:49:46.470Z,59.70
2023-04-23T05:52:14.252Z,57.77
2023-04-23T05:54:42.506Z,56.20
2023-04-23T05:57:09.644Z,55.03
2023-04-23T05:59:36.595Z,56.00
2023-04-23T06:02:04.045Z,51.57
2023-04-23T06:04:31.847Z,53.47
2023-04-23T06:06:59.140Z,46.90
2023-04-23T06:09:26.576Z,47.67
2023-04-23T06:11:54.083Z,42.80
2023-04-23T06:14:21.183Z,42.53
2023-04-23T06:16:48.208Z,41.13
2023-04-23T06:19:15.429Z,38.93
2023-04-23T06:21:44.165Z,34.27
2023-04-23T06:24:11.526Z,31.03
2023-04-23T06:26:38.411Z,27.27
2023-04-23T06:29:05.772Z,25.27
2023-04-23T06:31:32.667Z,25.10
2023-04-23T06:33:59.992Z,22.13
2023-04-23T06:36:27.084Z,20.65
2023-04-23T06:38:54.133Z,20.48
2023-04-23T06:41:21.353Z,20.92
2023-04-23T06:43:49.066Z,20.63
2023-04-23T06:46:15.849Z,19.75
2023-04-23T06:48:42.837Z,19.30
2023-04-23T06:51:09.890Z,19.65
2023-04-23T06:53:38.428Z,18.50
2023-04-23T06:56:05.466Z,20.92
2023-04-23T06:58:32.473Z,18.45
2023-04-23T07:01:00.293Z,19.17
2023-04-23T07:03:31.922Z,18.00
2023-04-23T07:05:59.266Z,18.90
2023-04-23T07:08:26.295Z,17.38
2023-04-23T07:10:58.222Z,15.52
2023-04-23T07:13:25.452Z,15.95
2023-04-23T07:15:52.408Z,15.38
2023-04-23T07:18:22.836Z,14.13
2023-04-23T07:20:53.240Z,13.48
2023-04-23T07:23:20.163Z,14.93
2023-04-23T07:25:46.908Z,14.13
2023-04-23T07:28:14.320Z,14.00
2023-04-23T07:30:41.343Z,15.05
2023-04-23T07:33:08.354Z,12.95
2023-04-23T07:35:35.500Z,13.73
2023-04-23T07:38:02.251Z,15.52
2023-04-23T07:40:29.023Z,12.45
2023-04-23T07:42:56.457Z,11.55
2023-04-23T07:45:23.438Z,10.82
2023-04-23T07:47:50.912Z,11.55
2023-04-23T07:50:17.983Z,8.70
2023-04-23T07:52:44.729Z,7.45
2023-04-23T07:55:11.563Z,6.88
2023-04-23T07:57:38.760Z,8.18
2023-04-23T08:00:09.680Z,6.80
2023-04-23T08:02:36.639Z,8.77
2023-04-23T08:05:03.945Z,8.50
2023-04-23T08:07:31.121Z,13.23
2023-04-23T08:10:02.851Z,12.30
2023-04-23T08:12:30.959Z,11.07
2023-04-23T08:14:58.221Z,12.17
2023-04-23T08:17:25.405Z,12.50
2023-04-23T08:19:52.719Z,14.47
2023-04-23T08:22:20.445Z,14.27
2023-04-23T08:24:48.494Z,16.47
2023-04-23T08:27:15.804Z,16.97
2023-04-23T08:29:42.856Z,16.80
2023-04-23T08:32:10.255Z,16.27
2023-04-23T08:34:37.372Z,16.80
2023-04-23T08:37:05.047Z,15.20
2023-04-23T08:39:33.340Z,17.13
2023-04-23T08:42:11.340Z,16.30
2023-04-23T08:44:41.977Z,14.80
2023-04-23T08:47:12.477Z,16.93
2023-04-23T08:49:45.604Z,15.47
2023-04-23T08:52:20.326Z,14.97
2023-04-23T08:54:52.738Z,16.00
2023-04-23T08:57:29.043Z,14.13
2023-04-23T08:59:57.112Z,15.10
2023-04-23T09:02:25.722Z,13.97
2023-04-23T09:04:56.155Z,13.37
2023-04-23T09:07:23.546Z,13.10
2023-04-23T09:09:50.722Z,11.60
2023-04-23T09:12:20.909Z,12.13
2023-04-23T09:14:49.030Z,11.10
2023-04-23T09:17:16.954Z,9.80
2023-04-23T09:19:45.315Z,12.03
2023-04-23T09:22:13.182Z,9.70
2023-04-23T09:24:43.695Z,10.00
2023-04-23T09:27:11.014Z,8.67
2023-04-23T09:29:38.151Z,10.85
2023-04-23T09:32:11.270Z,7.95
2023-04-23T09:34:38.431Z,7.13
2023-04-23T09:37:12.772Z,8.52
2023-04-23T09:39:40.395Z,9.13
2023-04-23T09:42:09.949Z,8.43
2023-04-23T09:44:36.959Z,6.85
2023-04-23T09:47:12.399Z,8.40
2023-04-23T09:49:47.855Z,8.98
2023-04-23T09:52:15.375Z,7.82
2023-04-23T09:54:43.092Z,8.60
2023-04-23T09:57:12.161Z,7.18
2023-04-23T09:59:48.716Z,8.30
2023-04-23T10:02:17.619Z,7.85
2023-04-23T10:04:45.083Z,7.25
2023-04-23T10:07:20.200Z,5.97
2023-04-23T10:09:48.922Z,7.53
2023-04-23T10:12:40.986Z,6.90
2023-04-23T10:15:09.905Z,7.15
2023-04-23T10:17:38.117Z,6.63
2023-04-23T10:20:07.087Z,6.90
2023-04-23T10:22:35.359Z,7.05
2023-04-23T10:25:09.875Z,6.53
2023-04-23T10:27:53.135Z,10.48
2023-04-23T10:30:21.414Z,8.20
2023-04-23T10:33:00.329Z,5.60
2023-04-23T10:35:27.351Z,4.40
2023-04-23T10:37:54.829Z,4.85
2023-04-23T10:40:31.301Z,4.15
2023-04-23T10:42:59.810Z,5.18
2023-04-23T10:45:37.364Z,4.55
2023-04-23T10:48:04.691Z,3.65
2023-04-23T10:50:36.144Z,4.55
2023-04-23T10:53:04.632Z,7.18
2023-04-23T10:55:32.727Z,4.57
2023-04-23T10:58:11.256Z,6.07
2023-04-23T11:00:47.901Z,4.75
2023-04-23T11:03:30.628Z,4.63
2023-04-23T11:06:04.401Z,4.32
2023-04-23T11:08:32.974Z,4.75
2023-04-23T11:11:04.974Z,7.05
2023-04-23T11:13:34.745Z,5.03
2023-04-23T11:16:21.585Z,4.30
2023-04-23T11:19:05.408Z,3.55
2023-04-23T11:21:59.885Z,3.80
2023-04-23T11:24:45.473Z,3.60
2023-04-23T11:27:22.890Z,2.70
2023-04-23T11:29:49.872Z,7.47
2023-04-23T11:32:21.874Z,4.85
2023-04-23T11:34:51.008Z,4.07
2023-04-23T11:37:19.744Z,4.32
2023-04-23T11:39:51.656Z,5.15
2023-04-23T11:42:30.248Z,2.88
2023-04-23T11:44:57.730Z,4.63
2023-04-23T11:47:26.705Z,3.80
2023-04-23T11:49:56.706Z,3.88
2023-04-23T11:52:26.979Z,5.25
2023-04-23T11:54:53.976Z,4.68
2023-04-23T11:57:21.910Z,2.72
2023-04-23T11:59:49.329Z,4.25
2023-04-23T12:02:17.029Z,2.60
2023-04-23T12:04:44.394Z,3.05
2023-04-23T12:07:23.412Z,3.15
2023-04-23T12:09:58.051Z,4.38
2023-04-23T12:12:32.503Z,4.25
2023-04-23T12:15:07.749Z,3.20
2023-04-23T12:17:40.869Z,2.55
2023-04-23T12:20:13.221Z,2.67
2023-04-23T12:25:32.241Z,2.85
2023-04-23T12:28:07.020Z,5.20
2023-04-23T12:30:35.531Z,3.03
2023-04-23T12:33:04.498Z,3.22
2023-04-23T12:35:41.685Z,5.50
2023-04-23T12:38:22.423Z,2.25
2023-04-23T12:40:49.601Z,3.55
2023-04-23T12:43:16.546Z,4.00
2023-04-23T12:45:43.540Z,5.50
2023-04-23T12:48:10.763Z,3.47
2023-04-23T12:50:44.983Z,4.93
2023-04-23T12:53:12.121Z,2.92
2023-04-23T12:55:39.795Z,4.30
2023-04-23T12:58:13.934Z,2.00
2023-04-23T13:00:41.325Z,3.97
2023-04-23T13:03:09.138Z,2.08
2023-04-23T13:05:36.685Z,2.05
2023-04-23T13:08:04.028Z,2.25
2023-04-23T13:10:31.019Z,2.00
2023-04-23T13:12:58.178Z,2.20
2023-04-23T13:15:26.875Z,3.45
2023-04-23T13:17:54.294Z,2.72
2023-04-23T13:20:22.118Z,2.25
2023-04-23T13:22:49.006Z,5.05
2023-04-23T13:25:15.916Z,2.80
2023-04-23T13:27:43.296Z,5.10
2023-04-23T13:30:11.088Z,2.55
2023-04-23T13:32:37.923Z,2.17
2023-04-23T13:35:08.234Z,4.57
2023-04-23T13:37:35.112Z,2.40
2023-04-23T13:40:02.611Z,1.73
2023-04-23T13:42:29.642Z,2.30
2023-04-23T13:44:57.270Z,1.67
2023-04-23T13:47:24.248Z,1.42
2023-04-23T13:49:51.869Z,3.63
2023-04-23T13:52:18.639Z,1.75
2023-04-23T13:54:47.858Z,1.10
2023-04-23T13:57:15.577Z,1.35
2023-04-23T13:59:42.856Z,2.28
2023-04-23T14:02:10.562Z,2.45
2023-04-23T14:04:39.865Z,1.95
2023-04-23T14:07:07.045Z,2.10
2023-04-23T14:09:34.044Z,2.05
2023-04-23T14:12:01.865Z,2.80
2023-04-23T14:14:28.764Z,4.07
2023-04-23T14:16:55.675Z,2.05
2023-04-23T14:19:23.667Z,2.08
2023-04-23T14:21:50.497Z,1.88
2023-04-23T14:24:18.656Z,3.15
2023-04-23T14:26:49.764Z,2.80
2023-04-23T14:29:25.390Z,2.15
2023-04-23T14:31:52.580Z,2.30
2023-04-23T14:34:19.851Z,4.72
2023-04-23T14:36:49.066Z,2.65
2023-04-23T14:39:16.748Z,1.65
2023-04-23T14:41:43.934Z,2.17
2023-04-23T14:44:11.233Z,2.13
2023-04-23T14:46:38.360Z,2.70
2023-04-23T14:49:05.407Z,2.40
2023-04-23T14:51:32.232Z,4.73
2023-04-23T14:53:59.328Z,3.03
2023-04-23T14:56:27.451Z,1.40
2023-04-23T14:58:54.332Z,2.17
2023-04-23T15:01:21.773Z,2.00
2023-04-23T15:03:48.918Z,3.30
2023-04-23T15:06:16.206Z,1.90
2023-04-23T15:08:43.189Z,2.03
2023-04-23T15:11:13.469Z,2.23
2023-04-23T15:14:03.902Z,4.03
2023-04-23T15:19:10.528Z,1.90
2023-04-23T15:21:37.900Z,2.57
2023-04-23T15:24:05.228Z,3.07
2023-04-23T15:26:33.900Z,1.90
2023-04-23T15:29:00.942Z,6.70
2023-04-23T15:31:28.118Z,7.50
2023-04-23T15:33:55.133Z,3.50
2023-04-23T15:36:22.067Z,3.30
2023-04-23T15:38:48.845Z,3.80
2023-04-23T15:41:15.904Z,3.90
2023-04-23T15:43:42.745Z,2.00
2023-04-23T15:46:09.651Z,2.43
2023-04-23T15:48:36.745Z,5.03
2023-04-23T15:51:03.844Z,4.47
2023-04-23T15:53:30.636Z,2.10
2023-04-23T15:55:58.073Z,4.83
2023-04-23T15:58:25.848Z,3.60
2023-04-23T16:00:52.752Z,4.00
2023-04-23T16:03:20.093Z,2.57
2023-04-23T16:05:50.455Z,2.20
2023-04-23T16:08:17.641Z,5.47
2023-04-23T16:10:47.459Z,2.97
2023-04-23T16:13:14.284Z,2.87
2023-04-23T16:15:41.645Z,2.40
2023-04-23T16:18:08.743Z,2.17
2023-04-23T16:20:36.283Z,5.10
2023-04-23T16:23:03.173Z,4.63
2023-04-23T16:25:33.144Z,3.03
2023-04-23T16:28:00.180Z,2.27
2023-04-23T16:30:27.002Z,2.50
2023-04-23T16:32:54.360Z,3.23
2023-04-23T16:35:21.739Z,3.37
2023-04-23T16:37:48.845Z,2.83
2023-04-23T16:40:15.947Z,4.07
2023-04-23T16:42:43.685Z,5.30
2023-04-23T16:45:11.151Z,3.57
2023-04-23T16:47:38.575Z,5.20
2023-04-23T16:50:06.438Z,3.70
2023-04-23T16:52:33.269Z,3.10
2023-04-23T16:55:00.478Z,3.40
2023-04-23T16:57:28.321Z,4.07
2023-04-23T16:59:55.845Z,2.80
2023-04-23T17:02:22.992Z,4.37
2023-04-23T17:04:50.000Z,4.47
2023-04-23T17:07:17.161Z,4.60
2023-04-23T17:09:44.358Z,3.13
2023-04-23T17:12:11.398Z,5.10
2023-04-23T17:14:38.311Z,3.93
2023-04-23T17:17:05.612Z,3.73
2023-04-23T17:19:32.475Z,4.37
2023-04-23T17:22:00.234Z,3.10
2023-04-23T17:24:27.397Z,3.87
2023-04-23T17:26:54.181Z,1.87
2023-04-23T17:29:21.019Z,2.13
2023-04-23T17:31:48.140Z,1.40
2023-04-23T17:34:15.155Z,2.80
2023-04-23T17:36:42.069Z,3.17
2023-04-23T17:39:09.643Z,4.93
2023-04-23T17:41:36.578Z,1.53
2023-04-23T17:44:03.809Z,2.23
2023-04-23T17:46:30.951Z,4.00
2023-04-23T17:48:57.829Z,4.03
2023-04-23T17:51:24.779Z,1.63
2023-04-23T17:53:52.050Z,5.13
2023-04-23T17:56:19.123Z,3.93
2023-04-23T17:58:46.324Z,3.13
2023-04-23T18:01:13.605Z,3.13
2023-04-23T18:03:40.669Z,10.63
2023-04-23T18:06:09.238Z,5.40
2023-04-23T18:08:37.857Z,2.87
2023-04-23T18:11:07.799Z,4.47
2023-04-23T18:13:36.422Z,3.50
2023-04-23T18:16:03.895Z,4.73
2023-04-23T18:18:31.217Z,4.43
2023-04-23T18:20:58.271Z,4.73
2023-04-23T18:23:26.351Z,4.00
2023-04-23T18:25:53.536Z,3.67
2023-04-23T18:28:20.413Z,3.33
2023-04-23T18:30:48.279Z,2.97
2023-04-23T18:33:40.932Z,4.97
2023-04-23T18:36:24.501Z,4.37
2023-04-23T18:38:52.294Z,5.17
2023-04-23T18:41:19.117Z,3.27
2023-04-23T18:43:46.216Z,5.20
2023-04-23T18:46:13.334Z,4.57
2023-04-23T18:48:47.966Z,5.97
2023-04-23T18:51:21.424Z,5.43
2023-04-23T18:53:49.251Z,5.73
2023-04-23T18:56:16.377Z,5.73
2023-04-23T18:58:44.285Z,4.10
2023-04-23T19:01:11.212Z,4.13
2023-04-23T19:03:38.380Z,5.40
2023-04-23T19:06:07.863Z,15.97
2023-04-23T19:08:35.852Z,6.93
2023-04-23T19:11:03.560Z,7.53
2023-04-23T19:13:30.825Z,7.93
2023-04-23T19:15:57.980Z,5.13
2023-04-23T19:18:25.053Z,6.90
2023-04-23T19:20:53.005Z,4.97
2023-04-23T19:23:20.440Z,4.70
2023-04-23T19:25:48.670Z,4.13
2023-04-23T19:28:15.845Z,5.73
2023-04-23T19:30:42.740Z,5.23
2023-04-23T19:33:09.937Z,6.27
2023-04-23T19:35:39.386Z,7.00
2023-04-23T19:38:07.277Z,6.50
2023-04-23T19:40:34.710Z,5.03
2023-04-23T19:43:01.743Z,4.90
2023-04-23T19:45:30.071Z,5.53
2023-04-23T19:47:58.126Z,4.37
2023-04-23T19:50:26.309Z,3.33
2023-04-23T19:52:53.359Z,5.47
2023-04-23T19:55:22.590Z,3.37
2023-04-23T19:57:49.460Z,3.60
2023-04-23T20:00:17.180Z,4.03
2023-04-23T20:02:44.223Z,3.43
2023-04-23T20:05:11.455Z,4.73
2023-04-23T20:07:39.139Z,2.83
2023-04-23T20:10:07.013Z,3.77
2023-04-23T20:12:35.070Z,4.10
2023-04-23T20:15:02.329Z,2.50
2023-04-23T20:17:32.883Z,2.03
2023-04-23T20:20:02.109Z,2.33
2023-04-23T20:22:32.910Z,2.87
2023-04-23T20:25:02.030Z,3.10
2023-04-23T20:27:29.556Z,3.43
2023-04-23T20:29:57.196Z,1.93
2023-04-23T20:32:24.310Z,1.93
2023-04-23T20:34:52.661Z,2.03
2023-04-23T20:37:22.222Z,3.57
2023-04-23T20:39:50.507Z,3.43
2023-04-23T20:42:17.360Z,1.50
2023-04-23T20:44:46.937Z,1.40
2023-04-23T20:47:16.489Z,1.97
2023-04-23T20:49:43.536Z,1.60
2023-04-23T20:52:12.350Z,1.80
2023-04-23T20:54:39.189Z,1.60
2023-04-23T20:57:06.084Z,1.43
2023-04-23T20:59:32.938Z,1.67
2023-04-23T21:02:00.246Z,1.53
2023-04-23T21:04:27.479Z,1.87
2023-04-23T21:06:54.368Z,1.20
2023-04-23T21:09:21.395Z,1.67
2023-04-23T21:11:48.312Z,1.50
2023-04-23T21:14:15.146Z,1.53
2023-04-23T21:16:42.186Z,1.43
2023-04-23T21:19:09.556Z,1.70
2023-04-23T21:21:36.629Z,3.13
2023-04-23T21:24:03.690Z,2.00
2023-04-23T21:26:31.266Z,2.17
2023-04-23T21:28:58.552Z,2.27
2023-04-23T21:31:45.228Z,2.37
2023-04-23T21:34:12.595Z,2.37
2023-04-23T21:36:39.483Z,1.50
2023-04-23T21:39:06.693Z,1.63
2023-04-23T21:41:33.996Z,2.40
2023-04-23T21:44:00.980Z,1.13
2023-04-23T21:46:27.977Z,1.40
2023-04-23T21:48:55.541Z,1.97
2023-04-23T21:51:23.003Z,1.57
2023-04-23T21:53:52.722Z,1.70
2023-04-23T21:56:20.573Z,1.50
2023-04-23T21:58:47.415Z,1.63
2023-04-23T22:01:14.619Z,1.47
2023-04-23T22:03:43.619Z,3.30
2023-04-23T22:06:10.728Z,1.47
2023-04-23T22:12:25.500Z,1.30
2023-04-23T22:14:52.673Z,1.50
2023-04-23T22:17:20.252Z,1.97
2023-04-23T22:19:47.349Z,2.30
2023-04-23T22:22:14.137Z,1.80
2023-04-23T22:24:41.225Z,2.03
2023-04-23T22:27:08.217Z,3.03
2023-04-23T22:29:35.342Z,1.93
2023-04-23T22:32:02.280Z,3.83
2023-04-23T22:34:29.287Z,1.77
2023-04-23T22:36:56.542Z,1.47
2023-04-23T22:39:23.454Z,1.53
2023-04-23T22:41:50.911Z,2.03
2023-04-23T22:44:17.746Z,2.10
2023-04-23T22:46:45.978Z,2.40
2023-04-23T22:49:14.277Z,1.90
2023-04-23T22:51:41.140Z,1.27
2023-04-23T22:54:08.089Z,1.20
2023-04-23T22:56:35.048Z,2.43
2023-04-23T22:59:04.965Z,1.90
2023-04-23T23:01:32.162Z,1.67
2023-04-23T23:03:59.006Z,1.00
2023-04-23T23:06:26.517Z,0.63
2023-04-23T23:08:53.896Z,0.80
2023-04-23T23:11:21.024Z,0.90
2023-04-23T23:13:50.327Z,1.33
2023-04-23T23:16:20.063Z,2.60
2023-04-23T23:18:47.122Z,1.10
2023-04-23T23:21:14.048Z,0.70
2023-04-23T23:23:41.042Z,1.17
2023-04-23T23:26:07.823Z,1.30
2023-04-23T23:28:35.234Z,4.87
2023-04-23T23:31:02.260Z,1.10
2023-04-23T23:33:29.375Z,0.93
2023-04-23T23:35:57.238Z,0.80
2023-04-23T23:38:24.255Z,0.53
2023-04-23T23:40:51.111Z,0.63
2023-04-23T23:43:17.942Z,1.17
2023-04-23T23:45:44.972Z,0.40
2023-04-23T23:48:12.493Z,0.80
2023-04-23T23:50:39.534Z,0.83
2023-04-23T23:53:06.557Z,0.50
2023-04-23T23:55:33.349Z,0.40
2023-04-23T23:58:01.119Z,0.97
